sensor_id;sensor_type;location;lat;lon;timestamp;temperature;humidity
52471;DHT22;38382;53.160;7.026;2024-01-27T00:01:25;4.00;99.90
52471;DHT22;38382;53.160;7.026;2024-01-27T00:03:51;3.60;99.90
52471;DHT22;38382;53.160;7.026;2024-01-27T00:06:16;3.50;99.90
52471;DHT22;38382;53.160;7.026;2024-01-27T00:08:42;3.50;99.90
52471;DHT22;38382;53.160;7.026;2024-01-27T00:11:08;3.80;99.90
52471;DHT22;38382;53.160;7.026;2024-01-27T00:13:33;3.60;99.90
52471;DHT22;38382;53.160;7.026;2024-01-27T00:15:59;3.50;99.90
52471;DHT22;38382;53.160;7.026;2024-01-27T00:18:25;3.70;99.90
52471;DHT22;38382;53.160;7.026;2024-01-27T00:20:51;3.60;99.90
52471;DHT22;38382;53.160;7.026;2024-01-27T00:23:16;3.50;99.90
52471;DHT22;38382;53.160;7.026;2024-01-27T00:25:42;3.40;99.90
52471;DHT22;38382;53.160;7.026;2024-01-27T00:28:08;3.50;99.90
52471;DHT22;38382;53.160;7.026;2024-01-27T00:30:33;3.40;99.90
52471;DHT22;38382;53.160;7.026;2024-01-27T00:32:59;3.40;99.90
52471;DHT22;38382;53.160;7.026;2024-01-27T00:35:25;3.50;99.90
52471;DHT22;38382;53.160;7.026;2024-01-27T00:37:50;4.60;99.90
52471;DHT22;38382;53.160;7.026;2024-01-27T00:40:16;3.50;99.90
52471;DHT22;38382;53.160;7.026;2024-01-27T00:42:42;3.40;99.90
52471;DHT22;38382;53.160;7.026;2024-01-27T00:45:08;3.50;99.90
52471;DHT22;38382;53.160;7.026;2024-01-27T00:47:34;3.30;99.90
52471;DHT22;38382;53.160;7.026;2024-01-27T00:50:01;3.70;99.90
52471;DHT22;38382;53.160;7.026;2024-01-27T00:52:26;3.30;99.90
52471;DHT22;38382;53.160;7.026;2024-01-27T00:54:52;3.70;99.90
52471;DHT22;38382;53.160;7.026;2024-01-27T00:57:18;3.50;99.90
52471;DHT22;38382;53.160;7.026;2024-01-27T00:59:43;4.10;99.90
52471;DHT22;38382;53.160;7.026;2024-01-27T01:02:09;3.20;99.90
52471;DHT22;38382;53.160;7.026;2024-01-27T01:04:35;3.80;99.90
52471;DHT22;38382;53.160;7.026;2024-01-27T01:07:00;3.30;99.90
52471;DHT22;38382;53.160;7.026;2024-01-27T01:09:26;4.20;99.90
52471;DHT22;38382;53.160;7.026;2024-01-27T01:11:52;3.20;99.90
52471;DHT22;38382;53.160;7.026;2024-01-27T01:14:18;3.20;99.90
52471;DHT22;38382;53.160;7.026;2024-01-27T01:16:44;3.20;99.90
52471;DHT22;38382;53.160;7.026;2024-01-27T01:19:09;3.20;99.90
52471;DHT22;38382;53.160;7.026;2024-01-27T01:21:35;3.10;99.90
52471;DHT22;38382;53.160;7.026;2024-01-27T01:24:01;4.20;99.90
52471;DHT22;38382;53.160;7.026;2024-01-27T01:26:27;3.10;99.90
52471;DHT22;38382;53.160;7.026;2024-01-27T01:28:52;3.10;99.90
52471;DHT22;38382;53.160;7.026;2024-01-27T01:31:18;3.10;99.90
52471;DHT22;38382;53.160;7.026;2024-01-27T01:33:44;3.70;99.90
52471;DHT22;38382;53.160;7.026;2024-01-27T01:36:10;3.10;99.90
52471;DHT22;38382;53.160;7.026;2024-01-27T01:38:35;3.00;99.90
52471;DHT22;38382;53.160;7.026;2024-01-27T01:41:01;4.00;99.90
52471;DHT22;38382;53.160;7.026;2024-01-27T01:43:27;3.10;99.90
52471;DHT22;38382;53.160;7.026;2024-01-27T01:45:53;4.20;99.90
52471;DHT22;38382;53.160;7.026;2024-01-27T01:48:19;3.10;99.90
52471;DHT22;38382;53.160;7.026;2024-01-27T01:50:46;3.90;99.90
52471;DHT22;38382;53.160;7.026;2024-01-27T01:53:13;3.00;99.90
52471;DHT22;38382;53.160;7.026;2024-01-27T01:55:39;3.00;99.90
52471;DHT22;38382;53.160;7.026;2024-01-27T01:58:05;3.00;99.90
52471;DHT22;38382;53.160;7.026;2024-01-27T02:00:32;3.40;99.90
52471;DHT22;38382;53.160;7.026;2024-01-27T02:02:58;4.00;99.90
52471;DHT22;38382;53.160;7.026;2024-01-27T02:05:24;3.00;99.90
52471;DHT22;38382;53.160;7.026;2024-01-27T02:07:50;3.70;99.90
52471;DHT22;38382;53.160;7.026;2024-01-27T02:10:17;3.90;99.90
52471;DHT22;38382;53.160;7.026;2024-01-27T02:12:46;3.00;99.90
52471;DHT22;38382;53.160;7.026;2024-01-27T02:15:12;3.00;99.90
52471;DHT22;38382;53.160;7.026;2024-01-27T02:17:39;3.40;99.90
52471;DHT22;38382;53.160;7.026;2024-01-27T02:20:06;2.90;99.90
52471;DHT22;38382;53.160;7.026;2024-01-27T02:22:36;2.90;99.90
52471;DHT22;38382;53.160;7.026;2024-01-27T02:25:05;3.80;99.90
52471;DHT22;38382;53.160;7.026;2024-01-27T02:27:31;2.90;99.90
52471;DHT22;38382;53.160;7.026;2024-01-27T02:29:56;2.80;99.90
52471;DHT22;38382;53.160;7.026;2024-01-27T02:32:22;4.00;99.90
52471;DHT22;38382;53.160;7.026;2024-01-27T02:34:48;2.80;99.90
52471;DHT22;38382;53.160;7.026;2024-01-27T02:37:14;2.80;99.90
52471;DHT22;38382;53.160;7.026;2024-01-27T02:39:41;3.70;99.90
52471;DHT22;38382;53.160;7.026;2024-01-27T02:42:07;2.80;99.90
52471;DHT22;38382;53.160;7.026;2024-01-27T02:44:33;3.10;99.90
52471;DHT22;38382;53.160;7.026;2024-01-27T02:46:58;2.80;99.90
52471;DHT22;38382;53.160;7.026;2024-01-27T02:49:24;2.80;99.90
52471;DHT22;38382;53.160;7.026;2024-01-27T02:51:50;2.70;99.90
52471;DHT22;38382;53.160;7.026;2024-01-27T02:54:15;3.90;99.90
52471;DHT22;38382;53.160;7.026;2024-01-27T02:56:42;3.80;99.90
52471;DHT22;38382;53.160;7.026;2024-01-27T02:59:08;2.70;99.90
52471;DHT22;38382;53.160;7.026;2024-01-27T03:01:34;2.70;99.90
52471;DHT22;38382;53.160;7.026;2024-01-27T03:04:00;2.80;99.90
52471;DHT22;38382;53.160;7.026;2024-01-27T03:06:25;2.90;99.90
52471;DHT22;38382;53.160;7.026;2024-01-27T03:08:51;2.80;99.90
52471;DHT22;38382;53.160;7.026;2024-01-27T03:11:17;2.70;99.90
52471;DHT22;38382;53.160;7.026;2024-01-27T03:13:42;2.90;99.90
52471;DHT22;38382;53.160;7.026;2024-01-27T03:16:11;2.80;99.90
52471;DHT22;38382;53.160;7.026;2024-01-27T03:18:37;3.20;99.90
52471;DHT22;38382;53.160;7.026;2024-01-27T03:21:03;2.80;99.90
52471;DHT22;38382;53.160;7.026;2024-01-27T03:23:29;2.80;99.90
52471;DHT22;38382;53.160;7.026;2024-01-27T03:25:54;3.70;99.90
52471;DHT22;38382;53.160;7.026;2024-01-27T03:28:20;3.10;99.90
52471;DHT22;38382;53.160;7.026;2024-01-27T03:30:46;2.80;99.90
52471;DHT22;38382;53.160;7.026;2024-01-27T03:33:12;2.80;99.90
52471;DHT22;38382;53.160;7.026;2024-01-27T03:35:39;3.40;99.90
52471;DHT22;38382;53.160;7.026;2024-01-27T03:38:08;2.80;99.90
52471;DHT22;38382;53.160;7.026;2024-01-27T03:40:34;4.00;99.90
52471;DHT22;38382;53.160;7.026;2024-01-27T03:43:00;2.90;99.90
52471;DHT22;38382;53.160;7.026;2024-01-27T03:45:25;2.90;99.90
52471;DHT22;38382;53.160;7.026;2024-01-27T03:47:51;3.50;99.90
52471;DHT22;38382;53.160;7.026;2024-01-27T03:50:17;4.10;99.90
52471;DHT22;38382;53.160;7.026;2024-01-27T03:52:43;3.00;99.90
52471;DHT22;38382;53.160;7.026;2024-01-27T03:55:09;2.90;99.90
52471;DHT22;38382;53.160;7.026;2024-01-27T03:57:34;2.90;99.90
52471;DHT22;38382;53.160;7.026;2024-01-27T04:00:00;3.30;99.90
52471;DHT22;38382;53.160;7.026;2024-01-27T04:02:31;2.90;99.90
52471;DHT22;38382;53.160;7.026;2024-01-27T04:04:57;2.90;99.90
52471;DHT22;38382;53.160;7.026;2024-01-27T04:07:23;3.60;99.90
52471;DHT22;38382;53.160;7.026;2024-01-27T04:09:48;2.80;99.90
52471;DHT22;38382;53.160;7.026;2024-01-27T04:12:14;4.10;99.90
52471;DHT22;38382;53.160;7.026;2024-01-27T04:14:40;2.80;99.90
52471;DHT22;38382;53.160;7.026;2024-01-27T04:17:05;3.60;99.90
52471;DHT22;38382;53.160;7.026;2024-01-27T04:19:31;2.80;99.90
52471;DHT22;38382;53.160;7.026;2024-01-27T04:21:57;1.70;99.90
52471;DHT22;38382;53.160;7.026;2024-01-27T04:24:23;2.80;99.90
52471;DHT22;38382;53.160;7.026;2024-01-27T04:26:48;3.60;99.90
52471;DHT22;38382;53.160;7.026;2024-01-27T04:29:14;2.70;99.90
52471;DHT22;38382;53.160;7.026;2024-01-27T04:31:41;2.70;99.90
52471;DHT22;38382;53.160;7.026;2024-01-27T04:34:07;3.90;99.90
52471;DHT22;38382;53.160;7.026;2024-01-27T04:36:33;2.60;99.90
52471;DHT22;38382;53.160;7.026;2024-01-27T04:38:59;2.90;99.90
52471;DHT22;38382;53.160;7.026;2024-01-27T04:41:24;3.00;99.90
52471;DHT22;38382;53.160;7.026;2024-01-27T04:43:50;2.50;99.90
52471;DHT22;38382;53.160;7.026;2024-01-27T04:46:16;2.50;99.90
52471;DHT22;38382;53.160;7.026;2024-01-27T04:48:42;3.60;99.90
52471;DHT22;38382;53.160;7.026;2024-01-27T04:51:08;2.60;99.90
52471;DHT22;38382;53.160;7.026;2024-01-27T04:53:33;2.50;99.90
52471;DHT22;38382;53.160;7.026;2024-01-27T04:55:59;3.10;99.90
52471;DHT22;38382;53.160;7.026;2024-01-27T04:58:25;3.40;99.90
52471;DHT22;38382;53.160;7.026;2024-01-27T05:04:15;2.30;99.90
52471;DHT22;38382;53.160;7.026;2024-01-27T05:06:44;3.80;99.90
52471;DHT22;38382;53.160;7.026;2024-01-27T05:09:13;2.90;99.90
52471;DHT22;38382;53.160;7.026;2024-01-27T05:11:40;2.70;99.90
52471;DHT22;38382;53.160;7.026;2024-01-27T05:14:08;2.70;99.90
52471;DHT22;38382;53.160;7.026;2024-01-27T05:16:33;2.60;99.90
52471;DHT22;38382;53.160;7.026;2024-01-27T05:18:59;3.50;99.90
52471;DHT22;38382;53.160;7.026;2024-01-27T05:21:25;2.80;99.90
52471;DHT22;38382;53.160;7.026;2024-01-27T05:23:51;2.30;99.90
52471;DHT22;38382;53.160;7.026;2024-01-27T05:26:16;3.50;99.90
52471;DHT22;38382;53.160;7.026;2024-01-27T05:28:42;2.20;99.90
52471;DHT22;38382;53.160;7.026;2024-01-27T05:31:08;3.80;99.90
52471;DHT22;38382;53.160;7.026;2024-01-27T05:33:35;3.00;99.90
52471;DHT22;38382;53.160;7.026;2024-01-27T05:36:01;3.50;99.90
52471;DHT22;38382;53.160;7.026;2024-01-27T05:38:27;3.40;99.90
52471;DHT22;38382;53.160;7.026;2024-01-27T05:40:54;3.20;99.90
52471;DHT22;38382;53.160;7.026;2024-01-27T05:43:19;3.30;99.90
52471;DHT22;38382;53.160;7.026;2024-01-27T05:45:46;2.30;99.90
52471;DHT22;38382;53.160;7.026;2024-01-27T05:48:12;2.30;99.90
52471;DHT22;38382;53.160;7.026;2024-01-27T05:50:41;3.20;99.90
52471;DHT22;38382;53.160;7.026;2024-01-27T05:53:07;2.20;99.90
52471;DHT22;38382;53.160;7.026;2024-01-27T05:55:33;2.70;99.90
52471;DHT22;38382;53.160;7.026;2024-01-27T05:57:59;2.30;99.90
52471;DHT22;38382;53.160;7.026;2024-01-27T06:00:25;3.30;99.90
52471;DHT22;38382;53.160;7.026;2024-01-27T06:02:50;2.40;99.90
52471;DHT22;38382;53.160;7.026;2024-01-27T06:05:17;2.40;99.90
52471;DHT22;38382;53.160;7.026;2024-01-27T06:07:43;2.50;99.90
52471;DHT22;38382;53.160;7.026;2024-01-27T06:10:09;2.30;99.90
52471;DHT22;38382;53.160;7.026;2024-01-27T06:12:36;2.70;99.90
52471;DHT22;38382;53.160;7.026;2024-01-27T06:15:01;2.30;99.90
52471;DHT22;38382;53.160;7.026;2024-01-27T06:17:28;2.30;99.90
52471;DHT22;38382;53.160;7.026;2024-01-27T06:19:54;3.60;99.90
52471;DHT22;38382;53.160;7.026;2024-01-27T06:22:20;2.60;99.90
52471;DHT22;38382;53.160;7.026;2024-01-27T06:24:45;2.30;99.90
52471;DHT22;38382;53.160;7.026;2024-01-27T06:27:11;2.70;99.90
52471;DHT22;38382;53.160;7.026;2024-01-27T06:29:37;2.60;99.90
52471;DHT22;38382;53.160;7.026;2024-01-27T06:32:04;3.00;99.90
52471;DHT22;38382;53.160;7.026;2024-01-27T06:34:29;2.20;99.90
52471;DHT22;38382;53.160;7.026;2024-01-27T06:36:55;2.20;99.90
52471;DHT22;38382;53.160;7.026;2024-01-27T06:39:21;2.40;99.90
52471;DHT22;38382;53.160;7.026;2024-01-27T06:41:47;3.30;99.90
52471;DHT22;38382;53.160;7.026;2024-01-27T06:44:13;2.10;99.90
52471;DHT22;38382;53.160;7.026;2024-01-27T06:46:38;2.60;99.90
52471;DHT22;38382;53.160;7.026;2024-01-27T06:49:04;2.00;99.90
52471;DHT22;38382;53.160;7.026;2024-01-27T06:51:30;2.50;99.90
52471;DHT22;38382;53.160;7.026;2024-01-27T06:53:55;2.00;99.90
52471;DHT22;38382;53.160;7.026;2024-01-27T06:56:21;2.90;99.90
52471;DHT22;38382;53.160;7.026;2024-01-27T06:58:47;3.30;99.90
52471;DHT22;38382;53.160;7.026;2024-01-27T07:01:12;1.90;99.90
52471;DHT22;38382;53.160;7.026;2024-01-27T07:03:38;1.90;99.90
52471;DHT22;38382;53.160;7.026;2024-01-27T07:06:06;2.90;99.90
52471;DHT22;38382;53.160;7.026;2024-01-27T07:08:32;2.30;99.90
52471;DHT22;38382;53.160;7.026;2024-01-27T07:10:58;1.80;99.90
52471;DHT22;38382;53.160;7.026;2024-01-27T07:13:24;2.30;99.90
52471;DHT22;38382;53.160;7.026;2024-01-27T07:15:50;1.90;99.90
52471;DHT22;38382;53.160;7.026;2024-01-27T07:18:15;1.90;99.90
52471;DHT22;38382;53.160;7.026;2024-01-27T07:20:43;3.40;99.90
52471;DHT22;38382;53.160;7.026;2024-01-27T07:23:08;3.50;99.90
52471;DHT22;38382;53.160;7.026;2024-01-27T07:25:34;2.00;99.90
52471;DHT22;38382;53.160;7.026;2024-01-27T07:28:00;1.90;99.90
52471;DHT22;38382;53.160;7.026;2024-01-27T07:30:25;1.90;99.90
52471;DHT22;38382;53.160;7.026;2024-01-27T07:32:51;1.90;99.90
52471;DHT22;38382;53.160;7.026;2024-01-27T07:35:17;2.20;99.90
52471;DHT22;38382;53.160;7.026;2024-01-27T07:37:43;1.80;99.90
52471;DHT22;38382;53.160;7.026;2024-01-27T07:40:09;1.90;99.90
52471;DHT22;38382;53.160;7.026;2024-01-27T07:42:35;1.90;99.90
52471;DHT22;38382;53.160;7.026;2024-01-27T07:45:01;3.10;99.90
52471;DHT22;38382;53.160;7.026;2024-01-27T07:47:27;1.80;99.90
52471;DHT22;38382;53.160;7.026;2024-01-27T07:49:53;2.90;99.90
52471;DHT22;38382;53.160;7.026;2024-01-27T07:52:19;2.00;99.90
52471;DHT22;38382;53.160;7.026;2024-01-27T07:54:45;1.90;99.90
52471;DHT22;38382;53.160;7.026;2024-01-27T07:57:11;2.00;99.90
52471;DHT22;38382;53.160;7.026;2024-01-27T07:59:38;1.90;99.90
52471;DHT22;38382;53.160;7.026;2024-01-27T08:02:04;3.10;99.90
52471;DHT22;38382;53.160;7.026;2024-01-27T08:04:29;2.00;99.90
52471;DHT22;38382;53.160;7.026;2024-01-27T08:06:55;2.00;99.90
52471;DHT22;38382;53.160;7.026;2024-01-27T08:09:21;2.90;99.90
52471;DHT22;38382;53.160;7.026;2024-01-27T08:11:47;2.10;99.90
52471;DHT22;38382;53.160;7.026;2024-01-27T08:14:17;2.20;99.90
52471;DHT22;38382;53.160;7.026;2024-01-27T08:16:42;3.10;99.90
52471;DHT22;38382;53.160;7.026;2024-01-27T08:19:08;2.20;99.90
52471;DHT22;38382;53.160;7.026;2024-01-27T08:21:34;3.70;99.90
52471;DHT22;38382;53.160;7.026;2024-01-27T08:24:00;2.30;99.90
52471;DHT22;38382;53.160;7.026;2024-01-27T08:26:26;3.60;99.90
52471;DHT22;38382;53.160;7.026;2024-01-27T08:28:51;3.70;99.90
52471;DHT22;38382;53.160;7.026;2024-01-27T08:31:17;2.60;99.90
52471;DHT22;38382;53.160;7.026;2024-01-27T08:33:43;2.80;99.90
52471;DHT22;38382;53.160;7.026;2024-01-27T08:36:13;2.70;99.90
52471;DHT22;38382;53.160;7.026;2024-01-27T08:38:39;2.60;99.90
52471;DHT22;38382;53.160;7.026;2024-01-27T08:41:05;2.90;99.90
52471;DHT22;38382;53.160;7.026;2024-01-27T08:43:30;2.80;99.90
52471;DHT22;38382;53.160;7.026;2024-01-27T08:45:56;2.70;99.90
52471;DHT22;38382;53.160;7.026;2024-01-27T08:48:23;2.80;99.90
52471;DHT22;38382;53.160;7.026;2024-01-27T08:50:49;3.00;99.90
52471;DHT22;38382;53.160;7.026;2024-01-27T08:53:15;3.00;99.90
52471;DHT22;38382;53.160;7.026;2024-01-27T08:55:40;3.20;99.90
52471;DHT22;38382;53.160;7.026;2024-01-27T08:58:06;3.20;99.90
52471;DHT22;38382;53.160;7.026;2024-01-27T09:00:32;3.10;99.90
52471;DHT22;38382;53.160;7.026;2024-01-27T09:02:58;3.20;99.90
52471;DHT22;38382;53.160;7.026;2024-01-27T09:05:24;3.40;99.90
52471;DHT22;38382;53.160;7.026;2024-01-27T09:07:50;3.50;99.90
52471;DHT22;38382;53.160;7.026;2024-01-27T09:10:16;4.10;99.90
52471;DHT22;38382;53.160;7.026;2024-01-27T09:12:42;3.60;99.90
52471;DHT22;38382;53.160;7.026;2024-01-27T09:15:08;4.50;99.90
52471;DHT22;38382;53.160;7.026;2024-01-27T09:17:34;3.70;99.90
52471;DHT22;38382;53.160;7.026;2024-01-27T09:20:00;5.10;99.90
52471;DHT22;38382;53.160;7.026;2024-01-27T09:22:25;3.80;99.90
52471;DHT22;38382;53.160;7.026;2024-01-27T09:24:52;4.10;99.90
52471;DHT22;38382;53.160;7.026;2024-01-27T09:27:18;4.30;99.90
52471;DHT22;38382;53.160;7.026;2024-01-27T09:29:44;4.30;99.90
52471;DHT22;38382;53.160;7.026;2024-01-27T09:32:09;4.90;99.90
52471;DHT22;38382;53.160;7.026;2024-01-27T09:34:35;5.10;99.90
52471;DHT22;38382;53.160;7.026;2024-01-27T09:37:01;5.60;99.90
52471;DHT22;38382;53.160;7.026;2024-01-27T09:39:27;4.10;99.90
52471;DHT22;38382;53.160;7.026;2024-01-27T09:41:54;4.20;99.90
52471;DHT22;38382;53.160;7.026;2024-01-27T09:44:20;4.50;99.90
52471;DHT22;38382;53.160;7.026;2024-01-27T09:46:46;4.30;99.90
52471;DHT22;38382;53.160;7.026;2024-01-27T09:49:14;4.80;99.90
52471;DHT22;38382;53.160;7.026;2024-01-27T09:51:43;4.50;99.90
52471;DHT22;38382;53.160;7.026;2024-01-27T09:54:09;4.70;99.90
52471;DHT22;38382;53.160;7.026;2024-01-27T09:56:35;4.70;99.90
52471;DHT22;38382;53.160;7.026;2024-01-27T09:59:01;5.00;99.90
52471;DHT22;38382;53.160;7.026;2024-01-27T10:01:27;4.90;99.90
52471;DHT22;38382;53.160;7.026;2024-01-27T10:03:54;5.40;99.90
52471;DHT22;38382;53.160;7.026;2024-01-27T10:06:21;5.40;99.90
52471;DHT22;38382;53.160;7.026;2024-01-27T10:08:53;6.30;99.90
52471;DHT22;38382;53.160;7.026;2024-01-27T10:11:20;5.30;99.90
52471;DHT22;38382;53.160;7.026;2024-01-27T10:13:54;6.10;99.90
52471;DHT22;38382;53.160;7.026;2024-01-27T10:16:21;5.50;99.90
52471;DHT22;38382;53.160;7.026;2024-01-27T10:18:46;5.60;99.90
52471;DHT22;38382;53.160;7.026;2024-01-27T10:21:13;5.80;99.90
52471;DHT22;38382;53.160;7.026;2024-01-27T10:23:39;5.90;99.90
52471;DHT22;38382;53.160;7.026;2024-01-27T10:26:05;5.90;99.90
52471;DHT22;38382;53.160;7.026;2024-01-27T10:28:31;6.10;99.90
52471;DHT22;38382;53.160;7.026;2024-01-27T10:31:11;6.20;99.90
52471;DHT22;38382;53.160;7.026;2024-01-27T10:33:38;6.30;99.90
52471;DHT22;38382;53.160;7.026;2024-01-27T10:36:04;6.40;99.90
52471;DHT22;38382;53.160;7.026;2024-01-27T10:38:37;6.60;99.90
52471;DHT22;38382;53.160;7.026;2024-01-27T10:41:08;6.90;99.90
52471;DHT22;38382;53.160;7.026;2024-01-27T10:43:36;6.80;99.90
52471;DHT22;38382;53.160;7.026;2024-01-27T10:46:06;7.00;99.90
52471;DHT22;38382;53.160;7.026;2024-01-27T10:48:34;7.20;99.90
52471;DHT22;38382;53.160;7.026;2024-01-27T10:51:09;7.20;99.90
52471;DHT22;38382;53.160;7.026;2024-01-27T10:53:36;7.30;99.90
52471;DHT22;38382;53.160;7.026;2024-01-27T10:56:04;7.40;99.90
52471;DHT22;38382;53.160;7.026;2024-01-27T10:58:35;7.60;99.90
52471;DHT22;38382;53.160;7.026;2024-01-27T11:01:13;7.60;99.90
52471;DHT22;38382;53.160;7.026;2024-01-27T11:03:40;7.60;99.90
52471;DHT22;38382;53.160;7.026;2024-01-27T11:06:06;7.70;99.90
52471;DHT22;38382;53.160;7.026;2024-01-27T11:08:36;7.90;99.90
52471;DHT22;38382;53.160;7.026;2024-01-27T11:11:03;7.90;99.90
52471;DHT22;38382;53.160;7.026;2024-01-27T11:13:33;8.10;99.90
52471;DHT22;38382;53.160;7.026;2024-01-27T11:15:59;8.00;99.90
52471;DHT22;38382;53.160;7.026;2024-01-27T11:18:26;8.10;99.90
52471;DHT22;38382;53.160;7.026;2024-01-27T11:20:54;8.20;99.90
52471;DHT22;38382;53.160;7.026;2024-01-27T11:23:20;8.20;99.90
52471;DHT22;38382;53.160;7.026;2024-01-27T11:25:45;8.30;99.90
52471;DHT22;38382;53.160;7.026;2024-01-27T11:28:16;8.30;99.90
52471;DHT22;38382;53.160;7.026;2024-01-27T11:30:46;8.30;99.90
52471;DHT22;38382;53.160;7.026;2024-01-27T11:33:12;8.40;99.90
52471;DHT22;38382;53.160;7.026;2024-01-27T11:35:38;8.40;99.90
52471;DHT22;38382;53.160;7.026;2024-01-27T11:38:04;8.80;99.90
52471;DHT22;38382;53.160;7.026;2024-01-27T11:40:29;8.80;99.90
52471;DHT22;38382;53.160;7.026;2024-01-27T11:43:00;8.90;99.90
52471;DHT22;38382;53.160;7.026;2024-01-27T11:45:27;9.00;99.90
52471;DHT22;38382;53.160;7.026;2024-01-27T11:47:56;9.00;99.90
52471;DHT22;38382;53.160;7.026;2024-01-27T11:50:22;9.10;99.90
52471;DHT22;38382;53.160;7.026;2024-01-27T11:52:49;9.20;99.90
52471;DHT22;38382;53.160;7.026;2024-01-27T11:55:15;9.40;99.90
52471;DHT22;38382;53.160;7.026;2024-01-27T11:57:43;9.50;99.90
52471;DHT22;38382;53.160;7.026;2024-01-27T12:00:09;9.60;99.90
52471;DHT22;38382;53.160;7.026;2024-01-27T12:02:39;9.80;99.90
52471;DHT22;38382;53.160;7.026;2024-01-27T12:05:06;9.80;99.90
52471;DHT22;38382;53.160;7.026;2024-01-27T12:07:33;10.00;99.90
52471;DHT22;38382;53.160;7.026;2024-01-27T12:09:58;10.10;99.90
52471;DHT22;38382;53.160;7.026;2024-01-27T12:12:24;10.30;99.90
52471;DHT22;38382;53.160;7.026;2024-01-27T12:14:51;10.30;99.90
52471;DHT22;38382;53.160;7.026;2024-01-27T12:17:17;10.30;99.90
52471;DHT22;38382;53.160;7.026;2024-01-27T12:19:51;10.30;99.90
52471;DHT22;38382;53.160;7.026;2024-01-27T12:22:25;10.40;99.90
52471;DHT22;38382;53.160;7.026;2024-01-27T12:25:09;10.50;99.90
52471;DHT22;38382;53.160;7.026;2024-01-27T12:27:35;10.70;99.90
52471;DHT22;38382;53.160;7.026;2024-01-27T12:30:02;10.80;99.90
52471;DHT22;38382;53.160;7.026;2024-01-27T12:32:27;10.90;99.90
52471;DHT22;38382;53.160;7.026;2024-01-27T12:34:53;11.10;99.90
52471;DHT22;38382;53.160;7.026;2024-01-27T12:37:21;11.20;99.90
52471;DHT22;38382;53.160;7.026;2024-01-27T12:39:47;11.30;99.90
52471;DHT22;38382;53.160;7.026;2024-01-27T12:42:16;11.50;99.90
52471;DHT22;38382;53.160;7.026;2024-01-27T12:44:42;11.60;99.90
52471;DHT22;38382;53.160;7.026;2024-01-27T12:47:10;11.60;99.90
52471;DHT22;38382;53.160;7.026;2024-01-27T12:49:36;11.90;99.90
52471;DHT22;38382;53.160;7.026;2024-01-27T12:52:02;12.20;99.90
52471;DHT22;38382;53.160;7.026;2024-01-27T12:54:28;12.60;99.90
52471;DHT22;38382;53.160;7.026;2024-01-27T12:56:54;13.10;99.90
52471;DHT22;38382;53.160;7.026;2024-01-27T12:59:20;13.30;99.90
52471;DHT22;38382;53.160;7.026;2024-01-27T13:01:46;13.80;99.90
52471;DHT22;38382;53.160;7.026;2024-01-27T13:04:12;14.40;99.90
52471;DHT22;38382;53.160;7.026;2024-01-27T13:06:38;14.90;99.90
52471;DHT22;38382;53.160;7.026;2024-01-27T13:09:04;14.40;99.90
52471;DHT22;38382;53.160;7.026;2024-01-27T13:11:30;14.60;99.90
52471;DHT22;38382;53.160;7.026;2024-01-27T13:13:55;15.00;99.90
52471;DHT22;38382;53.160;7.026;2024-01-27T13:16:21;15.40;99.90
52471;DHT22;38382;53.160;7.026;2024-01-27T13:18:47;15.50;99.90
52471;DHT22;38382;53.160;7.026;2024-01-27T13:21:13;15.50;99.90
52471;DHT22;38382;53.160;7.026;2024-01-27T13:23:39;15.80;99.90
52471;DHT22;38382;53.160;7.026;2024-01-27T13:26:05;15.40;99.90
52471;DHT22;38382;53.160;7.026;2024-01-27T13:28:31;15.10;99.90
52471;DHT22;38382;53.160;7.026;2024-01-27T13:30:57;15.40;99.90
52471;DHT22;38382;53.160;7.026;2024-01-27T13:33:23;15.40;99.90
52471;DHT22;38382;53.160;7.026;2024-01-27T13:35:48;15.50;99.90
52471;DHT22;38382;53.160;7.026;2024-01-27T13:38:14;15.00;99.90
52471;DHT22;38382;53.160;7.026;2024-01-27T13:40:41;14.60;99.90
52471;DHT22;38382;53.160;7.026;2024-01-27T13:43:08;14.50;99.90
52471;DHT22;38382;53.160;7.026;2024-01-27T13:45:34;14.50;99.90
52471;DHT22;38382;53.160;7.026;2024-01-27T13:48:00;14.50;99.90
52471;DHT22;38382;53.160;7.026;2024-01-27T13:50:26;14.40;99.90
52471;DHT22;38382;53.160;7.026;2024-01-27T13:52:52;14.50;99.90
52471;DHT22;38382;53.160;7.026;2024-01-27T13:55:18;14.70;99.90
52471;DHT22;38382;53.160;7.026;2024-01-27T13:57:44;14.90;99.90
52471;DHT22;38382;53.160;7.026;2024-01-27T14:00:10;15.10;99.90
52471;DHT22;38382;53.160;7.026;2024-01-27T14:02:37;15.60;99.90
52471;DHT22;38382;53.160;7.026;2024-01-27T14:05:03;16.10;99.90
52471;DHT22;38382;53.160;7.026;2024-01-27T14:07:29;15.90;99.90
52471;DHT22;38382;53.160;7.026;2024-01-27T14:09:55;16.20;99.90
52471;DHT22;38382;53.160;7.026;2024-01-27T14:12:21;16.00;99.90
52471;DHT22;38382;53.160;7.026;2024-01-27T14:14:49;15.10;99.90
52471;DHT22;38382;53.160;7.026;2024-01-27T14:17:15;14.40;99.90
52471;DHT22;38382;53.160;7.026;2024-01-27T14:19:40;13.70;99.90
52471;DHT22;38382;53.160;7.026;2024-01-27T14:22:06;12.90;99.90
52471;DHT22;38382;53.160;7.026;2024-01-27T14:24:32;12.30;99.90
52471;DHT22;38382;53.160;7.026;2024-01-27T14:27:00;11.80;99.90
52471;DHT22;38382;53.160;7.026;2024-01-27T14:29:26;11.40;99.90
52471;DHT22;38382;53.160;7.026;2024-01-27T14:31:52;11.00;99.90
52471;DHT22;38382;53.160;7.026;2024-01-27T14:34:18;10.60;99.90
52471;DHT22;38382;53.160;7.026;2024-01-27T14:36:44;10.40;99.90
52471;DHT22;38382;53.160;7.026;2024-01-27T14:39:10;10.20;99.90
52471;DHT22;38382;53.160;7.026;2024-01-27T14:41:39;10.00;99.90
52471;DHT22;38382;53.160;7.026;2024-01-27T14:44:05;9.90;99.90
52471;DHT22;38382;53.160;7.026;2024-01-27T14:46:31;9.70;99.90
52471;DHT22;38382;53.160;7.026;2024-01-27T14:48:57;9.60;99.90
52471;DHT22;38382;53.160;7.026;2024-01-27T14:51:23;9.40;99.90
52471;DHT22;38382;53.160;7.026;2024-01-27T14:53:49;9.30;99.90
52471;DHT22;38382;53.160;7.026;2024-01-27T14:56:15;9.20;99.90
52471;DHT22;38382;53.160;7.026;2024-01-27T14:58:41;9.10;99.90
52471;DHT22;38382;53.160;7.026;2024-01-27T15:01:07;9.00;99.90
52471;DHT22;38382;53.160;7.026;2024-01-27T15:03:32;8.90;99.90
52471;DHT22;38382;53.160;7.026;2024-01-27T15:05:58;8.90;99.90
52471;DHT22;38382;53.160;7.026;2024-01-27T15:08:24;8.80;99.90
52471;DHT22;38382;53.160;7.026;2024-01-27T15:10:50;8.70;99.90
52471;DHT22;38382;53.160;7.026;2024-01-27T15:13:16;8.60;99.90
52471;DHT22;38382;53.160;7.026;2024-01-27T15:15:46;8.60;99.90
52471;DHT22;38382;53.160;7.026;2024-01-27T15:18:13;8.50;99.90
52471;DHT22;38382;53.160;7.026;2024-01-27T15:20:39;8.40;99.90
52471;DHT22;38382;53.160;7.026;2024-01-27T15:23:05;8.30;99.90
52471;DHT22;38382;53.160;7.026;2024-01-27T15:25:30;8.20;99.90
52471;DHT22;38382;53.160;7.026;2024-01-27T15:27:56;8.10;99.90
52471;DHT22;38382;53.160;7.026;2024-01-27T15:30:22;8.00;99.90
52471;DHT22;38382;53.160;7.026;2024-01-27T15:32:48;7.90;99.90
52471;DHT22;38382;53.160;7.026;2024-01-27T15:35:14;7.80;99.90
52471;DHT22;38382;53.160;7.026;2024-01-27T15:37:41;7.70;99.90
52471;DHT22;38382;53.160;7.026;2024-01-27T15:40:07;7.60;99.90